sensor_id;sensor_type;location;lat;lon;timestamp;P1;durP1;ratioP1;P2;durP2;ratioP2
44508;SDS011;30214;52.246;14.408;2022-09-03T00:02:38;2.83;;;1.60;;
44508;SDS011;30214;52.246;14.408;2022-09-03T00:05:17;4.35;;;1.40;;
44508;SDS011;30214;52.246;14.408;2022-09-03T00:07:56;3.17;;;1.55;;
44508;SDS011;30214;52.246;14.408;2022-09-03T00:10:36;8.73;;;1.30;;
44508;SDS011;30214;52.246;14.408;2022-09-03T00:13:14;6.63;;;1.50;;
44508;SDS011;30214;52.246;14.408;2022-09-03T00:15:55;5.38;;;1.70;;
44508;SDS011;30214;52.246;14.408;2022-09-03T00:18:31;2.65;;;1.38;;
44508;SDS011;30214;52.246;14.408;2022-09-03T00:21:06;3.75;;;1.50;;
44508;SDS011;30214;52.246;14.408;2022-09-03T00:23:53;6.18;;;1.80;;
44508;SDS011;30214;52.246;14.408;2022-09-03T00:26:24;5.32;;;1.35;;
44508;SDS011;30214;52.246;14.408;2022-09-03T00:29:05;6.60;;;1.55;;
44508;SDS011;30214;52.246;14.408;2022-09-03T00:31:49;8.63;;;2.25;;
44508;SDS011;30214;52.246;14.408;2022-09-03T00:34:29;6.03;;;1.52;;
44508;SDS011;30214;52.246;14.408;2022-09-03T00:37:04;4.85;;;1.70;;
44508;SDS011;30214;52.246;14.408;2022-09-03T00:39:37;3.13;;;1.50;;
44508;SDS011;30214;52.246;14.408;2022-09-03T00:42:10;5.93;;;1.90;;
44508;SDS011;30214;52.246;14.408;2022-09-03T00:45:02;11.18;;;1.60;;
44508;SDS011;30214;52.246;14.408;2022-09-03T00:47:54;2.58;;;1.30;;
44508;SDS011;30214;52.246;14.408;2022-09-03T00:50:42;3.90;;;1.67;;
44508;SDS011;30214;52.246;14.408;2022-09-03T00:53:44;4.82;;;1.40;;
44508;SDS011;30214;52.246;14.408;2022-09-03T00:56:33;6.00;;;1.52;;
44508;SDS011;30214;52.246;14.408;2022-09-03T00:59:18;6.85;;;1.60;;
44508;SDS011;30214;52.246;14.408;2022-09-03T01:02:00;8.90;;;1.88;;
44508;SDS011;30214;52.246;14.408;2022-09-03T01:04:50;4.65;;;1.73;;
44508;SDS011;30214;52.246;14.408;2022-09-03T01:10:10;5.25;;;1.60;;
44508;SDS011;30214;52.246;14.408;2022-09-03T01:12:53;3.88;;;1.42;;
44508;SDS011;30214;52.246;14.408;2022-09-03T01:15:35;3.15;;;1.40;;
44508;SDS011;30214;52.246;14.408;2022-09-03T01:18:16;6.32;;;1.30;;
44508;SDS011;30214;52.246;14.408;2022-09-03T01:21:15;3.67;;;1.63;;
44508;SDS011;30214;52.246;14.408;2022-09-03T01:24:22;4.20;;;1.30;;
44508;SDS011;30214;52.246;14.408;2022-09-03T01:27:31;5.22;;;1.73;;
44508;SDS011;30214;52.246;14.408;2022-09-03T01:30:39;4.45;;;1.52;;
44508;SDS011;30214;52.246;14.408;2022-09-03T01:33:15;3.78;;;1.35;;
44508;SDS011;30214;52.246;14.408;2022-09-03T01:35:56;4.97;;;1.65;;
44508;SDS011;30214;52.246;14.408;2022-09-03T01:41:13;8.77;;;1.73;;
44508;SDS011;30214;52.246;14.408;2022-09-03T01:44:13;5.00;;;1.90;;
44508;SDS011;30214;52.246;14.408;2022-09-03T01:47:21;7.38;;;1.52;;
44508;SDS011;30214;52.246;14.408;2022-09-03T01:50:06;7.57;;;1.58;;
44508;SDS011;30214;52.246;14.408;2022-09-03T01:52:45;3.88;;;1.50;;
44508;SDS011;30214;52.246;14.408;2022-09-03T01:55:25;5.97;;;1.40;;
44508;SDS011;30214;52.246;14.408;2022-09-03T01:58:04;4.78;;;1.70;;
44508;SDS011;30214;52.246;14.408;2022-09-03T02:00:47;6.15;;;1.55;;
44508;SDS011;30214;52.246;14.408;2022-09-03T02:03:34;3.88;;;1.40;;
44508;SDS011;30214;52.246;14.408;2022-09-03T02:06:13;4.75;;;1.75;;
44508;SDS011;30214;52.246;14.408;2022-09-03T02:08:47;3.65;;;1.65;;
44508;SDS011;30214;52.246;14.408;2022-09-03T02:13:53;4.88;;;1.80;;
44508;SDS011;30214;52.246;14.408;2022-09-03T02:16:30;4.28;;;1.70;;
44508;SDS011;30214;52.246;14.408;2022-09-03T02:19:06;8.90;;;1.75;;
44508;SDS011;30214;52.246;14.408;2022-09-03T02:21:42;10.55;;;1.52;;
44508;SDS011;30214;52.246;14.408;2022-09-03T02:24:16;5.18;;;1.48;;
44508;SDS011;30214;52.246;14.408;2022-09-03T02:26:52;5.32;;;1.80;;
44508;SDS011;30214;52.246;14.408;2022-09-03T02:29:21;3.92;;;1.48;;
44508;SDS011;30214;52.246;14.408;2022-09-03T02:31:53;3.83;;;1.60;;
44508;SDS011;30214;52.246;14.408;2022-09-03T02:34:32;5.05;;;1.35;;
44508;SDS011;30214;52.246;14.408;2022-09-03T02:37:11;5.15;;;1.48;;
44508;SDS011;30214;52.246;14.408;2022-09-03T02:39:43;7.03;;;1.73;;
44508;SDS011;30214;52.246;14.408;2022-09-03T02:42:18;7.15;;;2.00;;
44508;SDS011;30214;52.246;14.408;2022-09-03T02:44:53;10.13;;;1.90;;
44508;SDS011;30214;52.246;14.408;2022-09-03T02:47:34;5.47;;;1.55;;
44508;SDS011;30214;52.246;14.408;2022-09-03T02:50:10;11.63;;;1.45;;
44508;SDS011;30214;52.246;14.408;2022-09-03T02:52:42;3.97;;;1.55;;
44508;SDS011;30214;52.246;14.408;2022-09-03T02:55:14;5.95;;;1.30;;
44508;SDS011;30214;52.246;14.408;2022-09-03T02:57:45;4.65;;;1.48;;
44508;SDS011;30214;52.246;14.408;2022-09-03T03:00:17;4.30;;;1.50;;
44508;SDS011;30214;52.246;14.408;2022-09-03T03:02:49;6.15;;;1.90;;
44508;SDS011;30214;52.246;14.408;2022-09-03T03:05:38;3.88;;;1.90;;
44508;SDS011;30214;52.246;14.408;2022-09-03T03:08:19;4.90;;;1.52;;
44508;SDS011;30214;52.246;14.408;2022-09-03T03:10:58;7.22;;;1.60;;
44508;SDS011;30214;52.246;14.408;2022-09-03T03:13:36;6.78;;;1.70;;
44508;SDS011;30214;52.246;14.408;2022-09-03T03:16:15;3.30;;;1.73;;
44508;SDS011;30214;52.246;14.408;2022-09-03T03:18:50;4.25;;;1.60;;
44508;SDS011;30214;52.246;14.408;2022-09-03T03:21:39;4.47;;;1.75;;
44508;SDS011;30214;52.246;14.408;2022-09-03T03:24:19;3.58;;;1.52;;
44508;SDS011;30214;52.246;14.408;2022-09-03T03:26:54;5.78;;;1.63;;
44508;SDS011;30214;52.246;14.408;2022-09-03T03:29:25;2.88;;;1.52;;
44508;SDS011;30214;52.246;14.408;2022-09-03T03:31:56;4.03;;;1.90;;
44508;SDS011;30214;52.246;14.408;2022-09-03T03:34:48;4.82;;;1.83;;
44508;SDS011;30214;52.246;14.408;2022-09-03T03:37:21;3.80;;;1.77;;
44508;SDS011;30214;52.246;14.408;2022-09-03T03:39:54;6.55;;;1.75;;
44508;SDS011;30214;52.246;14.408;2022-09-03T03:42:32;6.97;;;2.00;;
44508;SDS011;30214;52.246;14.408;2022-09-03T03:45:14;3.60;;;1.63;;
44508;SDS011;30214;52.246;14.408;2022-09-03T03:47:45;6.05;;;1.60;;
44508;SDS011;30214;52.246;14.408;2022-09-03T03:50:16;4.05;;;1.83;;
44508;SDS011;30214;52.246;14.408;2022-09-03T03:52:58;4.60;;;2.10;;
44508;SDS011;30214;52.246;14.408;2022-09-03T03:55:32;5.25;;;1.75;;
44508;SDS011;30214;52.246;14.408;2022-09-03T03:58:06;4.57;;;1.80;;
44508;SDS011;30214;52.246;14.408;2022-09-03T04:00:39;4.22;;;2.03;;
44508;SDS011;30214;52.246;14.408;2022-09-03T04:03:14;4.75;;;1.80;;
44508;SDS011;30214;52.246;14.408;2022-09-03T04:05:54;8.60;;;2.00;;
44508;SDS011;30214;52.246;14.408;2022-09-03T04:08:34;5.72;;;1.77;;
44508;SDS011;30214;52.246;14.408;2022-09-03T04:11:10;4.43;;;1.60;;
44508;SDS011;30214;52.246;14.408;2022-09-03T04:13:48;4.03;;;1.67;;
44508;SDS011;30214;52.246;14.408;2022-09-03T04:16:20;6.55;;;2.03;;
44508;SDS011;30214;52.246;14.408;2022-09-03T04:18:54;6.68;;;1.95;;
44508;SDS011;30214;52.246;14.408;2022-09-03T04:21:30;4.03;;;1.80;;
44508;SDS011;30214;52.246;14.408;2022-09-03T04:24:04;3.67;;;1.67;;
44508;SDS011;30214;52.246;14.408;2022-09-03T04:26:34;7.95;;;2.10;;
44508;SDS011;30214;52.246;14.408;2022-09-03T04:29:08;3.88;;;1.92;;
44508;SDS011;30214;52.246;14.408;2022-09-03T04:31:39;5.80;;;1.70;;
44508;SDS011;30214;52.246;14.408;2022-09-03T04:34:29;4.85;;;1.85;;
44508;SDS011;30214;52.246;14.408;2022-09-03T04:37:01;3.88;;;1.90;;
44508;SDS011;30214;52.246;14.408;2022-09-03T04:39:39;4.30;;;1.98;;
44508;SDS011;30214;52.246;14.408;2022-09-03T04:42:18;3.70;;;2.00;;
44508;SDS011;30214;52.246;14.408;2022-09-03T04:44:49;6.28;;;1.67;;
44508;SDS011;30214;52.246;14.408;2022-09-03T04:47:22;6.32;;;1.92;;
44508;SDS011;30214;52.246;14.408;2022-09-03T04:49:58;8.10;;;2.25;;
44508;SDS011;30214;52.246;14.408;2022-09-03T04:52:28;5.43;;;1.77;;
44508;SDS011;30214;52.246;14.408;2022-09-03T04:54:59;9.52;;;2.08;;
44508;SDS011;30214;52.246;14.408;2022-09-03T04:57:28;4.63;;;2.28;;
44508;SDS011;30214;52.246;14.408;2022-09-03T05:00:04;4.30;;;1.83;;
44508;SDS011;30214;52.246;14.408;2022-09-03T05:02:36;3.85;;;2.20;;
44508;SDS011;30214;52.246;14.408;2022-09-03T05:05:06;4.80;;;2.20;;
44508;SDS011;30214;52.246;14.408;2022-09-03T05:07:49;6.40;;;2.07;;
44508;SDS011;30214;52.246;14.408;2022-09-03T05:10:18;6.00;;;1.92;;
44508;SDS011;30214;52.246;14.408;2022-09-03T05:12:56;4.75;;;2.10;;
44508;SDS011;30214;52.246;14.408;2022-09-03T05:15:24;7.05;;;2.78;;
44508;SDS011;30214;52.246;14.408;2022-09-03T05:17:54;7.80;;;2.30;;
44508;SDS011;30214;52.246;14.408;2022-09-03T05:20:22;5.20;;;2.13;;
44508;SDS011;30214;52.246;14.408;2022-09-03T05:22:50;5.88;;;2.20;;
44508;SDS011;30214;52.246;14.408;2022-09-03T05:25:19;5.55;;;2.10;;
44508;SDS011;30214;52.246;14.408;2022-09-03T05:27:47;4.88;;;2.20;;
44508;SDS011;30214;52.246;14.408;2022-09-03T05:30:14;5.38;;;2.05;;
44508;SDS011;30214;52.246;14.408;2022-09-03T05:32:41;3.83;;;2.10;;
44508;SDS011;30214;52.246;14.408;2022-09-03T05:35:09;5.70;;;2.20;;
44508;SDS011;30214;52.246;14.408;2022-09-03T05:37:36;4.57;;;2.10;;
44508;SDS011;30214;52.246;14.408;2022-09-03T05:40:04;7.78;;;2.00;;
44508;SDS011;30214;52.246;14.408;2022-09-03T05:42:36;4.20;;;1.80;;
44508;SDS011;30214;52.246;14.408;2022-09-03T05:45:05;4.15;;;2.10;;
44508;SDS011;30214;52.246;14.408;2022-09-03T05:47:35;5.97;;;2.05;;
44508;SDS011;30214;52.246;14.408;2022-09-03T05:50:05;5.65;;;2.00;;
44508;SDS011;30214;52.246;14.408;2022-09-03T05:52:35;4.03;;;1.80;;
44508;SDS011;30214;52.246;14.408;2022-09-03T05:55:02;7.30;;;2.05;;
44508;SDS011;30214;52.246;14.408;2022-09-03T05:57:30;4.88;;;2.00;;
44508;SDS011;30214;52.246;14.408;2022-09-03T05:59:59;4.72;;;1.80;;
44508;SDS011;30214;52.246;14.408;2022-09-03T06:02:26;5.57;;;2.00;;
44508;SDS011;30214;52.246;14.408;2022-09-03T06:04:53;5.97;;;2.10;;
44508;SDS011;30214;52.246;14.408;2022-09-03T06:07:21;6.40;;;2.38;;
44508;SDS011;30214;52.246;14.408;2022-09-03T06:09:52;4.60;;;1.90;;
44508;SDS011;30214;52.246;14.408;2022-09-03T06:12:20;5.47;;;2.00;;
44508;SDS011;30214;52.246;14.408;2022-09-03T06:14:47;5.43;;;1.70;;
44508;SDS011;30214;52.246;14.408;2022-09-03T06:17:16;4.75;;;2.00;;
44508;SDS011;30214;52.246;14.408;2022-09-03T06:19:43;5.25;;;2.03;;
44508;SDS011;30214;52.246;14.408;2022-09-03T06:22:11;4.65;;;2.22;;
44508;SDS011;30214;52.246;14.408;2022-09-03T06:24:38;5.22;;;2.00;;
44508;SDS011;30214;52.246;14.408;2022-09-03T06:27:05;14.07;;;2.47;;
44508;SDS011;30214;52.246;14.408;2022-09-03T06:29:32;6.05;;;1.85;;
44508;SDS011;30214;52.246;14.408;2022-09-03T06:32:00;8.65;;;2.33;;
44508;SDS011;30214;52.246;14.408;2022-09-03T06:34:30;4.22;;;1.88;;
44508;SDS011;30214;52.246;14.408;2022-09-03T06:36:57;3.78;;;1.90;;
44508;SDS011;30214;52.246;14.408;2022-09-03T06:39:25;7.97;;;1.98;;
44508;SDS011;30214;52.246;14.408;2022-09-03T06:41:52;3.33;;;1.85;;
44508;SDS011;30214;52.246;14.408;2022-09-03T06:46:53;5.43;;;1.85;;
44508;SDS011;30214;52.246;14.408;2022-09-03T06:49:20;4.28;;;1.90;;
44508;SDS011;30214;52.246;14.408;2022-09-03T06:51:50;5.72;;;2.00;;
44508;SDS011;30214;52.246;14.408;2022-09-03T06:54:17;4.57;;;2.20;;
44508;SDS011;30214;52.246;14.408;2022-09-03T06:56:44;9.50;;;2.53;;
44508;SDS011;30214;52.246;14.408;2022-09-03T06:59:12;4.55;;;2.00;;
44508;SDS011;30214;52.246;14.408;2022-09-03T07:01:40;7.82;;;2.08;;
44508;SDS011;30214;52.246;14.408;2022-09-03T07:04:09;5.40;;;1.90;;
44508;SDS011;30214;52.246;14.408;2022-09-03T07:06:38;2.83;;;1.58;;
44508;SDS011;30214;52.246;14.408;2022-09-03T07:09:08;4.55;;;1.95;;
44508;SDS011;30214;52.246;14.408;2022-09-03T07:11:37;4.95;;;2.10;;
44508;SDS011;30214;52.246;14.408;2022-09-03T07:14:10;4.80;;;1.95;;
44508;SDS011;30214;52.246;14.408;2022-09-03T07:16:38;5.10;;;1.92;;
44508;SDS011;30214;52.246;14.408;2022-09-03T07:19:07;5.05;;;2.33;;
44508;SDS011;30214;52.246;14.408;2022-09-03T07:21:34;5.65;;;1.80;;
44508;SDS011;30214;52.246;14.408;2022-09-03T07:24:02;4.50;;;1.85;;
44508;SDS011;30214;52.246;14.408;2022-09-03T07:26:33;5.68;;;1.88;;
44508;SDS011;30214;52.246;14.408;2022-09-03T07:29:03;6.47;;;1.90;;
44508;SDS011;30214;52.246;14.408;2022-09-03T07:31:32;5.35;;;1.75;;
44508;SDS011;30214;52.246;14.408;2022-09-03T07:34:01;5.22;;;1.80;;
44508;SDS011;30214;52.246;14.408;2022-09-03T07:36:34;4.15;;;1.65;;
44508;SDS011;30214;52.246;14.408;2022-09-03T07:39:05;3.40;;;1.60;;
44508;SDS011;30214;52.246;14.408;2022-09-03T07:41:33;3.40;;;1.50;;
44508;SDS011;30214;52.246;14.408;2022-09-03T07:44:01;3.70;;;1.70;;
44508;SDS011;30214;52.246;14.408;2022-09-03T07:46:31;5.88;;;1.85;;
44508;SDS011;30214;52.246;14.408;2022-09-03T07:49:01;2.60;;;1.30;;
44508;SDS011;30214;52.246;14.408;2022-09-03T07:51:31;4.03;;;1.50;;
44508;SDS011;30214;52.246;14.408;2022-09-03T07:54:01;5.07;;;1.77;;
44508;SDS011;30214;52.246;14.408;2022-09-03T07:56:32;6.70;;;1.45;;
44508;SDS011;30214;52.246;14.408;2022-09-03T07:59:01;4.32;;;1.63;;
44508;SDS011;30214;52.246;14.408;2022-09-03T08:01:29;6.15;;;1.80;;
44508;SDS011;30214;52.246;14.408;2022-09-03T08:03:58;3.95;;;1.58;;
44508;SDS011;30214;52.246;14.408;2022-09-03T08:06:26;6.00;;;1.58;;
44508;SDS011;30214;52.246;14.408;2022-09-03T08:08:56;5.18;;;1.60;;
44508;SDS011;30214;52.246;14.408;2022-09-03T08:11:25;4.00;;;1.60;;
44508;SDS011;30214;52.246;14.408;2022-09-03T08:13:57;5.63;;;1.63;;
44508;SDS011;30214;52.246;14.408;2022-09-03T08:16:27;4.10;;;1.65;;
44508;SDS011;30214;52.246;14.408;2022-09-03T08:18:56;4.03;;;1.80;;
44508;SDS011;30214;52.246;14.408;2022-09-03T08:21:23;4.60;;;1.70;;
44508;SDS011;30214;52.246;14.408;2022-09-03T08:23:53;2.92;;;1.48;;
44508;SDS011;30214;52.246;14.408;2022-09-03T08:26:27;4.95;;;1.80;;
44508;SDS011;30214;52.246;14.408;2022-09-03T08:28:58;3.00;;;1.60;;
44508;SDS011;30214;52.246;14.408;2022-09-03T08:31:25;4.22;;;1.60;;
44508;SDS011;30214;52.246;14.408;2022-09-03T08:33:54;4.75;;;1.60;;
44508;SDS011;30214;52.246;14.408;2022-09-03T08:36:24;6.20;;;1.60;;
44508;SDS011;30214;52.246;14.408;2022-09-03T08:38:54;5.07;;;1.88;;
44508;SDS011;30214;52.246;14.408;2022-09-03T08:41:31;5.90;;;1.52;;
44508;SDS011;30214;52.246;14.408;2022-09-03T08:44:15;3.03;;;1.45;;
44508;SDS011;30214;52.246;14.408;2022-09-03T08:46:50;4.75;;;1.58;;
44508;SDS011;30214;52.246;14.408;2022-09-03T08:49:24;4.13;;;1.52;;
44508;SDS011;30214;52.246;14.408;2022-09-03T08:51:57;5.05;;;1.33;;
44508;SDS011;30214;52.246;14.408;2022-09-03T08:54:30;3.65;;;1.42;;
44508;SDS011;30214;52.246;14.408;2022-09-03T08:56:59;4.10;;;1.58;;
44508;SDS011;30214;52.246;14.408;2022-09-03T08:59:29;4.22;;;1.90;;
44508;SDS011;30214;52.246;14.408;2022-09-03T09:01:58;5.88;;;1.52;;
44508;SDS011;30214;52.246;14.408;2022-09-03T09:04:48;4.53;;;2.13;;
44508;SDS011;30214;52.246;14.408;2022-09-03T09:07:26;5.18;;;1.50;;
44508;SDS011;30214;52.246;14.408;2022-09-03T09:10:00;7.20;;;1.60;;
44508;SDS011;30214;52.246;14.408;2022-09-03T09:12:39;3.03;;;1.40;;
44508;SDS011;30214;52.246;14.408;2022-09-03T09:15:16;4.75;;;1.65;;
44508;SDS011;30214;52.246;14.408;2022-09-03T09:18:02;5.90;;;1.85;;
44508;SDS011;30214;52.246;14.408;2022-09-03T09:20:39;9.90;;;1.88;;
44508;SDS011;30214;52.246;14.408;2022-09-03T09:23:14;6.40;;;1.67;;
44508;SDS011;30214;52.246;14.408;2022-09-03T09:25:48;4.90;;;1.50;;
44508;SDS011;30214;52.246;14.408;2022-09-03T09:28:17;3.33;;;1.48;;
44508;SDS011;30214;52.246;14.408;2022-09-03T09:30:48;3.38;;;1.40;;
44508;SDS011;30214;52.246;14.408;2022-09-03T09:33:18;4.70;;;1.50;;
44508;SDS011;30214;52.246;14.408;2022-09-03T09:35:47;6.10;;;1.60;;
44508;SDS011;30214;52.246;14.408;2022-09-03T09:38:14;2.35;;;1.30;;
44508;SDS011;30214;52.246;14.408;2022-09-03T09:40:54;3.58;;;1.50;;
44508;SDS011;30214;52.246;14.408;2022-09-03T09:43:22;2.53;;;1.35;;
44508;SDS011;30214;52.246;14.408;2022-09-03T09:45:51;4.72;;;1.45;;
44508;SDS011;30214;52.246;14.408;2022-09-03T09:48:20;4.90;;;1.20;;
44508;SDS011;30214;52.246;14.408;2022-09-03T09:51:05;5.18;;;1.40;;
44508;SDS011;30214;52.246;14.408;2022-09-03T09:53:36;4.95;;;1.33;;
44508;SDS011;30214;52.246;14.408;2022-09-03T09:56:03;3.35;;;1.30;;
44508;SDS011;30214;52.246;14.408;2022-09-03T09:58:32;3.55;;;1.55;;
44508;SDS011;30214;52.246;14.408;2022-09-03T10:01:02;3.80;;;1.60;;
44508;SDS011;30214;52.246;14.408;2022-09-03T10:03:38;5.00;;;1.20;;
44508;SDS011;30214;52.246;14.408;2022-09-03T10:06:14;5.47;;;1.50;;
44508;SDS011;30214;52.246;14.408;2022-09-03T10:09:06;5.18;;;1.20;;
44508;SDS011;30214;52.246;14.408;2022-09-03T10:11:34;2.65;;;1.30;;
44508;SDS011;30214;52.246;14.408;2022-09-03T10:14:07;7.43;;;1.30;;
44508;SDS011;30214;52.246;14.408;2022-09-03T10:16:44;5.30;;;1.50;;
44508;SDS011;30214;52.246;14.408;2022-09-03T10:19:19;4.53;;;1.20;;
44508;SDS011;30214;52.246;14.408;2022-09-03T10:21:57;4.32;;;1.52;;
44508;SDS011;30214;52.246;14.408;2022-09-03T10:24:36;3.85;;;1.33;;
44508;SDS011;30214;52.246;14.408;2022-09-03T10:27:13;2.63;;;1.20;;
44508;SDS011;30214;52.246;14.408;2022-09-03T10:29:42;3.63;;;1.20;;
44508;SDS011;30214;52.246;14.408;2022-09-03T10:32:16;2.97;;;1.20;;
44508;SDS011;30214;52.246;14.408;2022-09-03T10:34:55;4.30;;;1.30;;
44508;SDS011;30214;52.246;14.408;2022-09-03T10:37:36;4.43;;;1.10;;
44508;SDS011;30214;52.246;14.408;2022-09-03T10:40:21;2.67;;;0.85;;
44508;SDS011;30214;52.246;14.408;2022-09-03T10:43:05;6.43;;;1.08;;
44508;SDS011;30214;52.246;14.408;2022-09-03T10:45:52;2.92;;;1.20;;
44508;SDS011;30214;52.246;14.408;2022-09-03T10:48:44;2.60;;;1.10;;
44508;SDS011;30214;52.246;14.408;2022-09-03T10:51:23;2.80;;;1.10;;
44508;SDS011;30214;52.246;14.408;2022-09-03T10:53:56;5.47;;;1.30;;
44508;SDS011;30214;52.246;14.408;2022-09-03T10:56:49;3.45;;;1.20;;
44508;SDS011;30214;52.246;14.408;2022-09-03T10:59:30;4.47;;;1.40;;
44508;SDS011;30214;52.246;14.408;2022-09-03T11:02:18;2.72;;;1.27;;
44508;SDS011;30214;52.246;14.408;2022-09-03T11:05:01;4.78;;;1.10;;
44508;SDS011;30214;52.246;14.408;2022-09-03T11:07:35;3.65;;;1.38;;
44508;SDS011;30214;52.246;14.408;2022-09-03T11:10:11;5.25;;;1.33;;
44508;SDS011;30214;52.246;14.408;2022-09-03T11:12:42;5.35;;;1.35;;
44508;SDS011;30214;52.246;14.408;2022-09-03T11:15:17;3.03;;;1.10;;
44508;SDS011;30214;52.246;14.408;2022-09-03T11:17:52;6.65;;;1.20;;
44508;SDS011;30214;52.246;14.408;2022-09-03T11:20:25;4.07;;;1.48;;
44508;SDS011;30214;52.246;14.408;2022-09-03T11:22:53;3.78;;;1.10;;
44508;SDS011;30214;52.246;14.408;2022-09-03T11:25:25;2.40;;;0.95;;
44508;SDS011;30214;52.246;14.408;2022-09-03T11:28:00;3.85;;;1.88;;
44508;SDS011;30214;52.246;14.408;2022-09-03T11:30:39;4.28;;;1.20;;
44508;SDS011;30214;52.246;14.408;2022-09-03T11:33:26;3.33;;;1.20;;
44508;SDS011;30214;52.246;14.408;2022-09-03T11:35:57;4.05;;;1.42;;
44508;SDS011;30214;52.246;14.408;2022-09-03T11:38:26;7.63;;;1.23;;
44508;SDS011;30214;52.246;14.408;2022-09-03T11:40:57;4.00;;;1.10;;
44508;SDS011;30214;52.246;14.408;2022-09-03T11:43:29;3.57;;;1.50;;
44508;SDS011;30214;52.246;14.408;2022-09-03T11:46:05;3.25;;;1.17;;
44508;SDS011;30214;52.246;14.408;2022-09-03T11:48:38;2.25;;;1.10;;
44508;SDS011;30214;52.246;14.408;2022-09-03T11:54:00;6.47;;;1.20;;
44508;SDS011;30214;52.246;14.408;2022-09-03T11:56:31;6.57;;;1.33;;
44508;SDS011;30214;52.246;14.408;2022-09-03T11:59:02;2.80;;;1.20;;
44508;SDS011;30214;52.246;14.408;2022-09-03T12:01:43;2.70;;;1.20;;
44508;SDS011;30214;52.246;14.408;2022-09-03T12:04:17;5.63;;;1.00;;
44508;SDS011;30214;52.246;14.408;2022-09-03T12:07:03;5.05;;;1.30;;
44508;SDS011;30214;52.246;14.408;2022-09-03T12:10:02;4.40;;;1.30;;
44508;SDS011;30214;52.246;14.408;2022-09-03T12:12:49;3.25;;;1.25;;
44508;SDS011;30214;52.246;14.408;2022-09-03T12:15:48;2.35;;;1.30;;
44508;SDS011;30214;52.246;14.408;2022-09-03T12:18:32;2.38;;;1.27;;
44508;SDS011;30214;52.246;14.408;2022-09-03T12:21:02;8.00;;;1.40;;
44508;SDS011;30214;52.246;14.408;2022-09-03T12:23:34;5.10;;;1.40;;
44508;SDS011;30214;52.246;14.408;2022-09-03T12:26:08;3.38;;;1.30;;
44508;SDS011;30214;52.246;14.408;2022-09-03T12:28:39;3.85;;;1.30;;
44508;SDS011;30214;52.246;14.408;2022-09-03T12:31:13;3.50;;;1.40;;
44508;SDS011;30214;52.246;14.408;2022-09-03T12:33:47;6.40;;;2.00;;
44508;SDS011;30214;52.246;14.408;2022-09-03T12:36:18;4.88;;;1.20;;
44508;SDS011;30214;52.246;14.408;2022-09-03T12:38:48;3.33;;;1.30;;
44508;SDS011;30214;52.246;14.408;2022-09-03T12:41:23;2.85;;;1.17;;
44508;SDS011;30214;52.246;14.408;2022-09-03T12:43:53;2.70;;;1.35;;
44508;SDS011;30214;52.246;14.408;2022-09-03T12:46:23;4.22;;;1.30;;
44508;SDS011;30214;52.246;14.408;2022-09-03T12:48:56;2.97;;;1.25;;
44508;SDS011;30214;52.246;14.408;2022-09-03T12:51:31;13.43;;;1.55;;
44508;SDS011;30214;52.246;14.408;2022-09-03T12:54:02;3.63;;;1.50;;
44508;SDS011;30214;52.246;14.408;2022-09-03T12:56:38;3.95;;;1.50;;
44508;SDS011;30214;52.246;14.408;2022-09-03T12:59:08;3.20;;;1.38;;
44508;SDS011;30214;52.246;14.408;2022-09-03T13:01:41;3.13;;;1.23;;
44508;SDS011;30214;52.246;14.408;2022-09-03T13:04:15;3.70;;;1.25;;
44508;SDS011;30214;52.246;14.408;2022-09-03T13:06:47;2.55;;;1.13;;
44508;SDS011;30214;52.246;14.408;2022-09-03T13:09:22;3.88;;;1.30;;
44508;SDS011;30214;52.246;14.408;2022-09-03T13:11:53;2.45;;;1.20;;
44508;SDS011;30214;52.246;14.408;2022-09-03T13:14:24;5.18;;;1.50;;
44508;SDS011;30214;52.246;14.408;2022-09-03T13:16:59;3.47;;;1.30;;
44508;SDS011;30214;52.246;14.408;2022-09-03T13:23:09;5.18;;;1.58;;
44508;SDS011;30214;52.246;14.408;2022-09-03T13:26:03;7.35;;;1.40;;
44508;SDS011;30214;52.246;14.408;2022-09-03T13:28:46;4.03;;;1.42;;
44508;SDS011;30214;52.246;14.408;2022-09-03T13:31:30;4.20;;;1.50;;
44508;SDS011;30214;52.246;14.408;2022-09-03T13:34:01;4.47;;;1.50;;
44508;SDS011;30214;52.246;14.408;2022-09-03T13:36:36;2.85;;;1.40;;
44508;SDS011;30214;52.246;14.408;2022-09-03T13:39:16;7.20;;;1.63;;
44508;SDS011;30214;52.246;14.408;2022-09-03T13:41:53;7.25;;;1.70;;
44508;SDS011;30214;52.246;14.408;2022-09-03T13:44:33;5.70;;;1.65;;
44508;SDS011;30214;52.246;14.408;2022-09-03T13:47:08;5.18;;;1.80;;
44508;SDS011;30214;52.246;14.408;2022-09-03T13:49:48;3.88;;;1.70;;
44508;SDS011;30214;52.246;14.408;2022-09-03T13:52:38;4.43;;;1.65;;
44508;SDS011;30214;52.246;14.408;2022-09-03T13:55:11;4.40;;;1.63;;
44508;SDS011;30214;52.246;14.408;2022-09-03T13:57:46;4.45;;;1.63;;
44508;SDS011;30214;52.246;14.408;2022-09-03T14:00:22;4.72;;;1.70;;
44508;SDS011;30214;52.246;14.408;2022-09-03T14:02:57;3.55;;;1.65;;
44508;SDS011;30214;52.246;14.408;2022-09-03T14:05:40;6.97;;;1.63;;
44508;SDS011;30214;52.246;14.408;2022-09-03T14:08:21;7.03;;;1.92;;
44508;SDS011;30214;52.246;14.408;2022-09-03T14:10:56;5.65;;;1.73;;
44508;SDS011;30214;52.246;14.408;2022-09-03T14:13:41;3.72;;;1.60;;
44508;SDS011;30214;52.246;14.408;2022-09-03T14:16:19;6.38;;;1.80;;
44508;SDS011;30214;52.246;14.408;2022-09-03T14:18:57;3.00;;;1.60;;
44508;SDS011;30214;52.246;14.408;2022-09-03T14:21:32;6.07;;;1.75;;
44508;SDS011;30214;52.246;14.408;2022-09-03T14:24:06;6.45;;;1.92;;
44508;SDS011;30214;52.246;14.408;2022-09-03T14:26:48;5.85;;;1.80;;
44508;SDS011;30214;52.246;14.408;2022-09-03T14:29:19;6.30;;;1.85;;
44508;SDS011;30214;52.246;14.408;2022-09-03T14:31:55;6.60;;;1.83;;
44508;SDS011;30214;52.246;14.408;2022-09-03T14:37:57;5.07;;;1.80;;
44508;SDS011;30214;52.246;14.408;2022-09-03T14:41:00;4.70;;;1.70;;
44508;SDS011;30214;52.246;14.408;2022-09-03T14:43:44;6.32;;;2.20;;
44508;SDS011;30214;52.246;14.408;2022-09-03T14:46:30;4.15;;;1.85;;
44508;SDS011;30214;52.246;14.408;2022-09-03T14:49:11;6.25;;;2.00;;
44508;SDS011;30214;52.246;14.408;2022-09-03T14:54:36;4.53;;;2.03;;
44508;SDS011;30214;52.246;14.408;2022-09-03T14:57:37;5.30;;;1.90;;
44508;SDS011;30214;52.246;14.408;2022-09-03T15:00:19;4.53;;;2.00;;
44508;SDS011;30214;52.246;14.408;2022-09-03T15:03:03;6.10;;;1.85;;
44508;SDS011;30214;52.246;14.408;2022-09-03T15:05:53;10.00;;;2.00;;
44508;SDS011;30214;52.246;14.408;2022-09-03T15:08:41;6.78;;;2.45;;
44508;SDS011;30214;52.246;14.408;2022-09-03T15:11:46;4.82;;;2.08;;
44508;SDS011;30214;52.246;14.408;2022-09-03T15:14:19;6.85;;;2.10;;
44508;SDS011;30214;52.246;14.408;2022-09-03T15:16:58;5.45;;;2.10;;
44508;SDS011;30214;52.246;14.408;2022-09-03T15:19:50;5.28;;;2.13;;
44508;SDS011;30214;52.246;14.408;2022-09-03T15:22:40;3.35;;;2.00;;
44508;SDS011;30214;52.246;14.408;2022-09-03T15:25:35;4.68;;;1.70;;
44508;SDS011;30214;52.246;14.408;2022-09-03T15:28:17;3.70;;;1.98;;
44508;SDS011;30214;52.246;14.408;2022-09-03T15:30:56;5.32;;;2.00;;
44508;SDS011;30214;52.246;14.408;2022-09-03T15:33:32;4.82;;;1.80;;
44508;SDS011;30214;52.246;14.408;2022-09-03T15:36:08;4.97;;;1.85;;
44508;SDS011;30214;52.246;14.408;2022-09-03T15:38:45;4.43;;;2.30;;
44508;SDS011;30214;52.246;14.408;2022-09-03T15:41:21;4.28;;;1.90;;
44508;SDS011;30214;52.246;14.408;2022-09-03T15:44:00;4.00;;;1.90;;
44508;SDS011;30214;52.246;14.408;2022-09-03T15:46:34;5.70;;;2.30;;
44508;SDS011;30214;52.246;14.408;2022-09-03T15:49:16;6.50;;;1.90;;